< < Back
Terminal Aerodrome Forecast


Current Version              Previous Versions:   1  2  3  4  5  6  7  8  9  

Terminal Aerodrome Forecast

914
FTUS42 KFFC 021730
TAFMCN
TAF
KMCN 021730Z 0218/0318 25008KT P6SM VCSH SCT040
      TEMPO 0218/0222 VRB15G25KT 6SM TSRA BKN035CB
     FM030000 24007KT P6SM BKN100
     FM030900 23006KT P6SM BKN015
     FM031400 25009KT P6SM BKN025 BKN250
     FM031600 27010G15KT P6SM SCT050=

Latest METAR

199
SAUS80 KWBC 021800 CCA
MTRMCN
METAR KMCN 021753Z 27008G16KT 10SM FEW043 32/21 A2999 RMK AO2 SLP150
T03220211 10328 20217 58020


USA.gov is the U.S. government's official web portal to all federal, state and local government web resources and services.